RJNT(TAF)
8/13 2h
TAF RJNT 121707Z 1218/1400 14004KT 9999 FEW030 BKN080 BECMG
1222/1300 02009KT BECMG 1309/1312 25005KT TEMPO 1312/1318
4000 -SHRA BR=
戻る
トップページへ戻る
IMOC Co,.Ltd.